Time;durP1;ratioP1;P1;durP2;ratioP2;P2;SDS_P1;SDS_P2;PMS_P1;PMS_P2;Temp;Humidity;BMP_temperature;BMP_pressure;BME280_temperature;BME280_humidity;BME280_pressure;Samples;Min_cycle;Max_cycle;Signal;HPM_P1;HPM_P2
2023/08/12 00:00:07;;;;;;;4.88;2.83;;;;;;;27.86;99.58;96523.75;5075504;28;20028;-93
2023/08/12 00:02:33;;;;;;;5.45;2.78;;;;;;;27.83;97.90;96524.25;5085070;28;20028;-93
2023/08/12 00:04:58;;;;;;;5.20;2.75;;;;;;;27.75;99.04;96522.03;5078898;28;20034;-94
2023/08/12 00:07:24;;;;;;;6.80;3.38;;;;;;;27.74;99.42;96526.63;5058920;28;20027;-93
2023/08/12 00:09:49;;;;;;;5.43;3.33;;;;;;;27.46;100.00;96527.81;5070791;28;20121;-94
2023/08/12 00:12:15;;;;;;;5.75;3.28;;;;;;;27.70;100.00;96524.72;5056194;28;20039;-93
2023/08/12 00:15:10;;;;;;;5.28;2.97;;;;;;;27.59;100.00;96528.41;5056010;28;20024;-94
2023/08/12 00:17:37;;;;;;;7.38;3.20;;;;;;;27.29;100.00;96521.72;5069034;28;20036;-94
2023/08/12 00:20:05;;;;;;;8.13;3.05;;;;;;;27.21;100.00;96523.03;5074425;28;20475;-93
2023/08/12 00:22:31;;;;;;;6.22;3.15;;;;;;;27.09;100.00;96513.44;5072614;28;20436;-94
2023/08/12 00:24:57;;;;;;;5.10;2.92;;;;;;;27.14;100.00;96516.22;5057783;28;20037;-93
2023/08/12 00:27:22;;;;;;;5.78;3.10;;;;;;;26.98;100.00;96513.34;5057808;28;20027;-93
2023/08/12 00:29:48;;;;;;;8.98;3.58;;;;;;;27.16;100.00;96509.50;5075347;28;20021;-94
2023/08/12 00:32:14;;;;;;;6.25;3.00;;;;;;;27.09;100.00;96508.03;5057997;28;20028;-94
2023/08/12 00:34:39;;;;;;;7.03;3.50;;;;;;;27.17;100.00;96504.91;5058121;28;20047;-94
2023/08/12 00:37:05;;;;;;;6.22;3.05;;;;;;;26.98;100.00;96499.84;5057729;28;20549;-94
2023/08/12 00:39:30;;;;;;;6.72;3.25;;;;;;;27.14;100.00;96505.41;5057797;28;20082;-94
2023/08/12 00:41:56;;;;;;;7.28;3.38;;;;;;;27.29;100.00;96502.00;5075902;28;20396;-94
2023/08/12 00:44:21;;;;;;;5.80;3.45;;;;;;;27.40;100.00;96498.31;5041300;28;20042;-93
2023/08/12 00:46:48;;;;;;;5.25;3.20;;;;;;;27.52;100.00;96500.81;5058096;28;20115;-93
2023/08/12 00:49:13;;;;;;;10.13;2.58;;;;;;;27.32;100.00;96494.19;5057385;28;20524;-94
2023/08/12 00:51:42;;;;;;;4.80;2.83;;;;;;;27.39;100.00;96486.69;5075437;28;20020;-93
2023/08/12 00:54:12;;;;;;;6.13;3.30;;;;;;;27.27;100.00;96492.28;5057681;28;20020;-94
2023/08/12 00:56:38;;;;;;;5.95;3.45;;;;;;;27.34;100.00;96492.06;5075323;28;20115;-94
2023/08/12 00:59:06;;;;;;;5.45;3.20;;;;;;;27.20;100.00;96483.59;5068963;28;20100;-94
2023/08/12 01:01:35;;;;;;;6.22;3.05;;;;;;;27.53;100.00;96486.22;5066382;28;20032;-94
2023/08/12 01:04:01;;;;;;;5.45;3.00;;;;;;;27.31;100.00;96481.78;5073306;28;20032;-94
2023/08/12 01:06:26;;;;;;;7.90;3.00;;;;;;;27.57;100.00;96474.66;5052249;28;20048;-94
2023/08/12 01:08:53;;;;;;;4.65;2.95;;;;;;;27.73;100.00;96487.19;5066542;28;20489;-94
2023/08/12 01:11:41;;;;;;;4.53;2.55;;;;;;;27.45;100.00;96488.34;5060455;28;20032;-93
2023/08/12 01:14:23;;;;;;;5.93;3.55;;;;;;;27.56;100.00;96480.31;5051512;28;20028;-94
2023/08/12 01:16:56;;;;;;;4.90;3.25;;;;;;;27.62;100.00;96484.66;5071549;28;20137;-94
2023/08/12 01:19:28;;;;;;;8.07;3.47;;;;;;;27.21;100.00;96479.81;5074173;28;20035;-94
2023/08/12 01:21:59;;;;;;;17.33;3.83;;;;;;;27.32;100.00;96466.38;5066224;28;20171;-94
2023/08/12 01:24:24;;;;;;;8.82;3.45;;;;;;;27.22;100.00;96459.84;5067813;28;20046;-94
2023/08/12 01:26:50;;;;;;;9.25;3.58;;;;;;;27.11;100.00;96468.09;5056620;28;20482;-94
2023/08/12 01:29:17;;;;;;;7.80;3.85;;;;;;;27.02;100.00;96463.16;5057085;28;20024;-94
2023/08/12 01:31:51;;;;;;;9.50;3.35;;;;;;;26.82;100.00;96448.72;5057013;28;20052;-94
2023/08/12 01:34:30;;;;;;;8.27;3.17;;;;;;;26.95;100.00;96449.09;5055375;28;20036;-94
2023/08/12 01:36:58;;;;;;;5.20;3.50;;;;;;;27.22;100.00;96448.22;5067051;28;20024;-94
2023/08/12 01:39:26;;;;;;;9.13;3.35;;;;;;;27.34;100.00;96456.97;5073049;28;20028;-93
2023/08/12 01:41:54;;;;;;;6.55;3.67;;;;;;;27.38;100.00;96452.66;5073869;28;20023;-95
2023/08/12 01:44:19;;;;;;;4.90;2.90;;;;;;;27.32;100.00;96452.88;5056742;28;20016;-94
2023/08/12 01:46:46;;;;;;;6.25;3.28;;;;;;;27.01;100.00;96456.16;5069559;28;20398;-95
2023/08/12 01:49:11;;;;;;;5.45;3.70;;;;;;;27.31;100.00;96448.56;5054537;28;20084;-93
2023/08/12 01:51:37;;;;;;;5.32;2.88;;;;;;;27.52;100.00;96446.78;5056511;28;20056;-94
2023/08/12 01:54:02;;;;;;;6.47;3.45;;;;;;;27.55;100.00;96446.28;5068550;28;20536;-93
2023/08/12 01:56:28;;;;;;;5.78;3.22;;;;;;;27.42;100.00;96450.25;5074430;28;20029;-93
2023/08/12 01:58:54;;;;;;;5.38;3.05;;;;;;;27.03;100.00;96447.81;5056327;28;20021;-93
2023/08/12 02:01:19;;;;;;;7.55;3.55;;;;;;;26.95;100.00;96448.28;5071211;28;20143;-93
2023/08/12 02:03:45;;;;;;;5.43;3.60;;;;;;;26.96;100.00;96444.50;5052699;28;20031;-94
2023/08/12 02:06:10;;;;;;;5.38;3.35;;;;;;;26.83;100.00;96444.94;5057000;28;20030;-94
2023/08/12 02:08:36;;;;;;;6.57;3.97;;;;;;;26.70;100.00;96446.19;5059141;28;20025;-94
2023/08/12 02:11:02;;;;;;;5.10;3.40;;;;;;;26.37;100.00;96448.00;5069732;28;20084;-94
2023/08/12 02:13:28;;;;;;;5.28;3.03;;;;;;;26.56;100.00;96445.81;5056593;28;20065;-94
2023/08/12 02:15:53;;;;;;;5.88;3.78;;;;;;;26.48;100.00;96449.75;5056410;28;20028;-93
2023/08/12 02:18:21;;;;;;;7.07;3.78;;;;;;;26.39;100.00;96448.56;5072957;28;20474;-94
2023/08/12 02:20:48;;;;;;;8.25;3.58;;;;;;;26.21;100.00;96443.53;5056368;28;20016;-94
2023/08/12 02:23:13;;;;;;;9.85;3.35;;;;;;;26.39;100.00;96435.09;5056257;28;20382;-94
2023/08/12 02:25:39;;;;;;;6.20;3.60;;;;;;;26.51;100.00;96433.06;5052928;28;20083;-93
2023/08/12 02:28:05;;;;;;;5.38;3.60;;;;;;;26.04;100.00;96433.63;5068956;28;20024;-95
2023/08/12 02:30:30;;;;;;;10.60;3.35;;;;;;;26.45;100.00;96433.25;5051574;28;20020;-93
2023/08/12 02:33:10;;;;;;;7.80;3.88;;;;;;;26.43;100.00;96428.13;5071607;28;20115;-94
2023/08/12 02:35:37;;;;;;;6.25;3.40;;;;;;;26.31;100.00;96424.75;5056941;28;20052;-93
2023/08/12 02:38:03;;;;;;;5.93;3.67;;;;;;;26.40;100.00;96422.41;5074095;28;20016;-94
2023/08/12 02:40:29;;;;;;;7.60;3.58;;;;;;;26.30;100.00;96423.13;5058605;28;20032;-93
2023/08/12 02:42:54;;;;;;;5.35;3.47;;;;;;;26.33;100.00;96419.94;5054240;28;20028;-94
2023/08/12 02:45:20;;;;;;;10.32;3.75;;;;;;;26.05;100.00;96429.84;5057179;28;20055;-94
2023/08/12 02:47:45;;;;;;;6.03;3.45;;;;;;;26.20;100.00;96421.16;5053604;28;20860;-94
2023/08/12 02:50:11;;;;;;;6.70;3.60;;;;;;;26.38;100.00;96421.84;5065418;28;20501;-94
2023/08/12 02:52:41;;;;;;;5.47;3.63;;;;;;;26.40;100.00;96420.53;5063901;28;20024;-94
2023/08/12 02:55:08;;;;;;;5.50;3.63;;;;;;;26.64;100.00;96425.63;5044330;28;20539;-94
2023/08/12 02:57:33;;;;;;;6.38;3.92;;;;;;;26.71;100.00;96407.34;5048267;28;20013;-94
2023/08/12 02:59:59;;;;;;;7.15;3.83;;;;;;;26.75;100.00;96411.94;5059070;28;20025;-94
2023/08/12 03:02:24;;;;;;;6.65;3.70;;;;;;;26.68;100.00;96416.75;5075363;28;20020;-93
2023/08/12 03:04:50;;;;;;;10.45;3.72;;;;;;;26.84;100.00;96417.69;5060474;28;20180;-93
2023/08/12 03:07:15;;;;;;;7.18;3.60;;;;;;;26.67;100.00;96419.72;5075467;28;20020;-94
2023/08/12 03:09:41;;;;;;;5.60;3.50;;;;;;;26.63;100.00;96421.31;5076698;28;20060;-94
2023/08/12 03:12:07;;;;;;;8.70;3.78;;;;;;;26.52;100.00;96417.69;5072545;28;20036;-94
2023/08/12 03:14:33;;;;;;;6.68;3.30;;;;;;;26.62;100.00;96417.78;5059928;28;20077;-94
2023/08/12 03:17:00;;;;;;;7.25;3.58;;;;;;;26.80;100.00;96416.59;5060338;28;20554;-94
2023/08/12 03:19:30;;;;;;;5.57;3.65;;;;;;;26.56;100.00;96408.03;5059085;28;20021;-93
2023/08/12 03:21:57;;;;;;;6.38;3.65;;;;;;;26.63;100.00;96418.63;5075448;28;20020;-94
2023/08/12 03:24:23;;;;;;;5.38;3.65;;;;;;;26.53;100.00;96412.06;5050866;28;20386;-93
2023/08/12 03:26:49;;;;;;;6.35;3.72;;;;;;;26.59;100.00;96409.38;5058900;28;20033;-92
2023/08/12 03:29:14;;;;;;;9.50;3.70;;;;;;;26.39;100.00;96415.38;5076353;28;20020;-94
2023/08/12 03:31:41;;;;;;;7.22;4.25;;;;;;;26.33;100.00;96415.34;5061665;28;20021;-94
2023/08/12 03:34:07;;;;;;;5.97;3.70;;;;;;;26.40;100.00;96409.75;5049830;28;20074;-94
2023/08/12 03:36:33;;;;;;;5.68;4.00;;;;;;;26.50;100.00;96407.16;5072497;28;20016;-94
2023/08/12 03:39:08;;;;;;;7.38;4.30;;;;;;;26.38;100.00;96401.09;5053560;28;20032;-94
2023/08/12 03:41:34;;;;;;;8.40;4.40;;;;;;;26.54;100.00;96396.69;5056091;28;20116;-94
2023/08/12 03:44:04;;;;;;;13.55;4.85;;;;;;;26.25;100.00;96402.31;5067173;28;20027;-94
2023/08/12 03:46:29;;;;;;;9.27;4.25;;;;;;;26.15;100.00;96402.22;5072220;28;20021;-94
2023/08/12 03:48:55;;;;;;;7.13;4.50;;;;;;;26.07;100.00;96399.97;5060261;28;20021;-93
2023/08/12 03:51:21;;;;;;;7.95;4.30;;;;;;;26.05;100.00;96389.44;5075304;28;20029;-93
2023/08/12 03:53:47;;;;;;;7.15;4.15;;;;;;;26.03;100.00;96396.97;5071097;28;20036;-93
2023/08/12 03:56:15;;;;;;;7.07;4.07;;;;;;;26.39;100.00;96388.41;5058299;28;20474;-93
2023/08/12 03:58:42;;;;;;;6.97;4.05;;;;;;;26.30;100.00;96396.16;5054068;28;20035;-93
2023/08/12 04:01:08;;;;;;;11.45;4.00;;;;;;;26.38;100.00;96390.31;5058744;28;20032;-93
2023/08/12 04:03:35;;;;;;;7.70;4.05;;;;;;;26.55;100.00;96388.31;5073528;28;20024;-94
2023/08/12 04:06:03;;;;;;;8.90;4.03;;;;;;;26.35;100.00;96385.41;5059965;28;20119;-94
2023/08/12 04:08:28;;;;;;;7.40;4.03;;;;;;;26.15;100.00;96386.03;5065237;28;20482;-93
2023/08/12 04:10:54;;;;;;;6.55;4.18;;;;;;;25.98;100.00;96380.75;5059958;28;20074;-93
2023/08/12 04:13:20;;;;;;;8.32;4.13;;;;;;;25.91;100.00;96380.13;5075954;28;20054;-94
2023/08/12 04:15:50;;;;;;;6.80;4.43;;;;;;;26.13;100.00;96382.78;5082631;28;20016;-93
2023/08/12 04:18:17;;;;;;;7.57;4.10;;;;;;;25.79;100.00;96382.13;5067225;28;20013;-94
2023/08/12 04:20:45;;;;;;;8.35;3.63;;;;;;;25.86;100.00;96375.50;5058792;28;20071;-93
2023/08/12 04:23:11;;;;;;;8.95;4.00;;;;;;;25.89;100.00;96374.19;5075070;28;20021;-94
2023/08/12 04:25:37;;;;;;;8.10;4.00;;;;;;;25.58;100.00;96376.47;5058263;28;20036;-94
2023/08/12 04:28:04;;;;;;;5.53;3.58;;;;;;;25.82;100.00;96376.25;5074957;28;20035;-94
2023/08/12 04:30:31;;;;;;;7.95;4.32;;;;;;;25.75;100.00;96381.78;5058623;28;20028;-94
2023/08/12 04:32:57;;;;;;;10.43;4.78;;;;;;;26.07;100.00;96376.53;5067649;28;20049;-94
2023/08/12 04:35:25;;;;;;;9.82;3.83;;;;;;;26.26;100.00;96373.50;5050676;28;20028;-93
2023/08/12 04:37:55;;;;;;;9.15;4.00;;;;;;;26.26;100.00;96371.59;5063288;28;20025;-93
2023/08/12 04:40:22;;;;;;;7.90;3.80;;;;;;;26.22;100.00;96369.66;5062544;28;20062;-93
2023/08/12 04:42:48;;;;;;;7.85;3.58;;;;;;;26.50;100.00;96364.03;5058419;28;20061;-94
2023/08/12 04:45:14;;;;;;;6.18;4.00;;;;;;;26.28;100.00;96368.63;5074942;28;20550;-94
2023/08/12 04:47:39;;;;;;;9.10;4.25;;;;;;;26.36;100.00;96368.19;5060053;28;20032;-93
2023/08/12 04:50:09;;;;;;;6.75;3.85;;;;;;;26.52;100.00;96369.94;5069395;28;20078;-94
2023/08/12 04:52:34;;;;;;;5.43;3.20;;;;;;;26.90;100.00;96370.00;5062460;28;20025;-93
2023/08/12 04:55:00;;;;;;;7.10;3.60;;;;;;;27.20;100.00;96364.81;5056423;28;20028;-94
2023/08/12 04:57:26;;;;;;;7.18;3.83;;;;;;;27.49;100.00;96367.91;5074762;28;20023;-93
2023/08/12 04:59:55;;;;;;;6.18;3.67;;;;;;;27.16;100.00;96365.56;5055452;28;20020;-93
2023/08/12 05:02:21;;;;;;;7.90;3.45;;;;;;;26.63;100.00;96360.09;5057448;28;20032;-94
2023/08/12 05:04:51;;;;;;;7.70;4.18;;;;;;;26.90;100.00;96360.00;5074365;28;20024;-95
2023/08/12 05:07:17;;;;;;;6.32;3.50;;;;;;;27.23;100.00;96360.75;5074773;28;20024;-95
2023/08/12 05:09:45;;;;;;;5.45;3.83;;;;;;;27.27;100.00;96364.56;5057881;28;20193;-94
2023/08/12 05:12:13;;;;;;;8.05;3.65;;;;;;;27.19;100.00;96373.97;5059252;28;20075;-93
2023/08/12 05:14:40;;;;;;;8.48;3.92;;;;;;;27.44;100.00;96373.28;5059417;28;20020;-93
2023/08/12 05:17:07;;;;;;;6.53;3.83;;;;;;;27.17;100.00;96372.63;5058772;28;20027;-94
2023/08/12 05:19:32;;;;;;;5.80;3.53;;;;;;;27.04;100.00;96369.25;5056865;28;20020;-94
2023/08/12 05:21:59;;;;;;;6.75;3.33;;;;;;;26.65;100.00;96365.22;5057995;28;20387;-94
2023/08/12 05:24:24;;;;;;;7.55;3.47;;;;;;;27.18;100.00;96372.34;5073798;28;20017;-94
2023/08/12 05:26:50;;;;;;;6.45;3.72;;;;;;;26.91;100.00;96366.22;5054727;28;20044;-94
2023/08/12 05:29:16;;;;;;;9.40;3.95;;;;;;;26.47;100.00;96369.94;5060086;28;20028;-94
2023/08/12 05:31:41;;;;;;;5.35;3.40;;;;;;;26.49;100.00;96361.56;5065965;28;20020;-94
2023/08/12 05:34:07;;;;;;;8.45;3.60;;;;;;;26.67;100.00;96365.78;5072392;28;20020;-94
2023/08/12 05:36:32;;;;;;;6.82;3.70;;;;;;;26.48;100.00;96363.44;5074459;28;20378;-94
2023/08/12 05:39:01;;;;;;;5.88;3.78;;;;;;;26.95;100.00;96364.59;5057359;28;20027;-94
2023/08/12 05:41:27;;;;;;;6.45;3.30;;;;;;;27.00;100.00;96373.56;5052700;28;20047;-94
2023/08/12 05:43:52;;;;;;;5.53;3.60;;;;;;;27.44;100.00;96373.28;5052952;28;21419;-94
2023/08/12 05:46:18;;;;;;;8.85;3.83;;;;;;;27.83;100.00;96378.31;5073820;28;20036;-94
2023/08/12 05:48:44;;;;;;;9.63;3.97;;;;;;;27.12;100.00;96378.75;5073620;28;20032;-94
2023/08/12 05:51:10;;;;;;;5.35;3.55;;;;;;;27.25;100.00;96380.22;5067386;28;20029;-94
2023/08/12 05:53:36;;;;;;;7.85;3.67;;;;;;;27.04;100.00;96387.34;5065490;28;20020;-94
2023/08/12 05:56:01;;;;;;;5.03;3.25;;;;;;;27.56;100.00;96388.47;5073835;28;20075;-94
2023/08/12 05:58:27;;;;;;;6.75;3.67;;;;;;;28.05;100.00;96397.03;5053215;28;20060;-94
2023/08/12 06:00:52;;;;;;;7.05;3.60;;;;;;;28.19;100.00;96392.75;5073781;28;20021;-94
2023/08/12 06:03:18;;;;;;;5.82;3.35;;;;;;;28.47;100.00;96393.38;5053407;28;20025;-94
2023/08/12 06:05:46;;;;;;;8.15;3.08;;;;;;;28.58;100.00;96399.59;5057454;28;20075;-94
2023/08/12 06:08:49;;;;;;;5.28;3.45;;;;;;;28.76;100.00;96399.06;5055297;28;20025;-94
2023/08/12 06:11:14;;;;;;;6.22;3.42;;;;;;;28.50;100.00;96400.13;5073327;28;20028;-94
2023/08/12 06:13:40;;;;;;;5.60;3.75;;;;;;;28.61;100.00;96394.47;5056728;28;20027;-94
2023/08/12 06:16:05;;;;;;;6.75;4.03;;;;;;;28.25;100.00;96398.97;5059575;28;20471;-93
2023/08/12 06:18:39;;;;;;;8.25;3.78;;;;;;;27.69;100.00;96391.47;5062451;28;20028;-94
2023/08/12 06:21:04;;;;;;;7.70;3.28;;;;;;;27.62;100.00;96387.41;5066081;28;20001;-94
2023/08/12 06:23:30;;;;;;;8.27;4.07;;;;;;;27.70;100.00;96381.50;5087579;28;20123;-94
2023/08/12 06:25:55;;;;;;;11.70;4.28;;;;;;;27.77;100.00;96383.97;5062876;28;20024;-94
2023/08/12 06:28:21;;;;;;;6.75;3.83;;;;;;;27.93;100.00;96383.78;5070906;28;20028;-94
2023/08/12 06:30:48;;;;;;;6.20;3.78;;;;;;;27.98;100.00;96377.56;5063267;28;20032;-95
2023/08/12 06:33:14;;;;;;;7.32;3.92;;;;;;;27.88;100.00;96380.25;5079789;28;20123;-94
2023/08/12 06:35:41;;;;;;;7.45;3.60;;;;;;;27.98;100.00;96388.38;5064873;28;20506;-94
2023/08/12 06:38:09;;;;;;;7.13;3.92;;;;;;;27.94;100.00;96398.09;5064840;28;20020;-94
2023/08/12 06:40:38;;;;;;;8.82;4.40;;;;;;;28.33;100.00;96397.63;5052247;28;20032;-93
2023/08/12 06:43:03;;;;;;;5.80;3.65;;;;;;;28.55;100.00;96392.03;5076742;28;20621;-93
2023/08/12 06:45:29;;;;;;;6.90;3.65;;;;;;;28.69;100.00;96395.81;5055958;28;20020;-93
2023/08/12 06:47:54;;;;;;;6.63;3.72;;;;;;;29.13;100.00;96384.41;5080601;28;20024;-93
2023/08/12 06:50:20;;;;;;;7.35;4.03;;;;;;;29.33;100.00;96395.22;5080025;28;20102;-93
2023/08/12 06:53:00;;;;;;;7.78;4.40;;;;;;;29.97;100.00;96390.91;5060397;28;20027;-93
2023/08/12 06:55:25;;;;;;;11.20;6.35;;;;;;;29.45;100.00;96389.50;5046146;28;20180;-93
2023/08/12 06:57:51;;;;;;;7.25;4.63;;;;;;;29.56;100.00;96403.81;5059558;28;20080;-92
2023/08/12 07:00:17;;;;;;;7.22;4.15;;;;;;;29.79;100.00;96397.78;5074881;28;20463;-92
2023/08/12 07:02:43;;;;;;;8.52;4.18;;;;;;;29.30;100.00;96390.34;5079972;28;20031;-92
2023/08/12 07:05:09;;;;;;;7.53;4.43;;;;;;;29.35;100.00;96387.63;5071134;28;20052;-93
2023/08/12 07:07:34;;;;;;;9.57;4.60;;;;;;;29.75;100.00;96402.16;5080552;28;20024;-90
2023/08/12 07:10:00;;;;;;;8.88;3.95;;;;;;;30.13;100.00;96401.69;5080197;28;20020;-90
2023/08/12 07:12:37;;;;;;;8.43;4.95;;;;;;;30.02;100.00;96396.34;5059384;28;20471;-90
2023/08/12 07:15:03;;;;;;;9.90;4.95;;;;;;;29.92;100.00;96395.59;5074302;28;20071;-90
2023/08/12 07:17:28;;;;;;;7.70;4.82;;;;;;;29.34;100.00;96402.28;5044361;28;20550;-90
2023/08/12 07:19:54;;;;;;;7.05;4.00;;;;;;;29.53;100.00;96393.53;5059769;28;20479;-89
2023/08/12 07:22:20;;;;;;;6.72;4.20;;;;;;;29.61;100.00;96392.97;5061434;28;21339;-86
2023/08/12 07:24:46;;;;;;;8.10;4.60;;;;;;;29.58;100.00;96396.22;5071921;28;20114;-88
2023/08/12 07:27:11;;;;;;;8.70;4.57;;;;;;;29.16;100.00;96394.72;5050297;28;20128;-89
2023/08/12 07:29:37;;;;;;;8.35;5.53;;;;;;;29.44;100.00;96395.97;5062955;28;20024;-89
2023/08/12 07:32:02;;;;;;;16.98;10.98;;;;;;;29.40;100.00;96400.34;5077652;28;20036;-90
2023/08/12 07:34:38;;;;;;;14.15;8.98;;;;;;;29.80;100.00;96393.97;5059985;28;20060;-90
2023/08/12 07:37:05;;;;;;;10.55;6.05;;;;;;;30.11;100.00;96404.69;5056521;28;20048;-91
2023/08/12 07:39:30;;;;;;;6.93;3.90;;;;;;;29.99;100.00;96396.09;5056246;28;20037;-90
2023/08/12 07:41:56;;;;;;;7.30;3.92;;;;;;;29.74;100.00;96400.50;5052515;28;20061;-90
2023/08/12 07:44:32;;;;;;;6.10;3.85;;;;;;;30.08;99.88;96397.13;5070246;28;20055;-90
2023/08/12 07:47:04;;;;;;;12.93;4.38;;;;;;;30.04;100.00;96382.47;5063265;28;20020;-89
2023/08/12 07:49:29;;;;;;;6.80;4.05;;;;;;;30.32;95.75;96380.19;5045232;28;20012;-89
2023/08/12 07:51:55;;;;;;;6.95;3.83;;;;;;;30.27;100.00;96389.97;5055477;28;20024;-91
2023/08/12 07:54:20;;;;;;;6.60;3.45;;;;;;;30.59;98.16;96377.00;5071653;28;20085;-90
2023/08/12 07:56:48;;;;;;;7.35;3.80;;;;;;;30.36;100.00;96383.97;5055232;28;20058;-91
2023/08/12 07:59:14;;;;;;;9.20;3.92;;;;;;;30.13;98.81;96388.94;5058187;28;20098;-87
2023/08/12 08:01:40;;;;;;;6.20;3.97;;;;;;;29.95;100.00;96386.88;5073603;28;20013;-89
2023/08/12 08:04:06;;;;;;;9.35;5.03;;;;;;;30.11;100.00;96387.59;5081429;28;20016;-89
2023/08/12 08:06:31;;;;;;;8.32;4.65;;;;;;;30.57;97.08;96380.00;5067245;28;20027;-90
2023/08/12 08:08:57;;;;;;;7.32;3.83;;;;;;;31.08;96.51;96374.13;5044403;28;20028;-91
2023/08/12 08:11:24;;;;;;;8.55;3.67;;;;;;;31.39;91.75;96373.88;5069623;28;20028;-88
2023/08/12 08:13:50;;;;;;;6.47;3.80;;;;;;;31.79;88.66;96382.59;5058197;28;20031;-87
2023/08/12 08:16:15;;;;;;;4.82;3.53;;;;;;;31.39;88.24;96380.09;5058225;28;20024;-91
2023/08/12 08:18:41;;;;;;;7.35;3.58;;;;;;;32.26;84.23;96378.19;5051157;28;20029;-93
2023/08/12 08:24:31;;;;;;;6.05;3.75;;;;;;;34.06;74.32;96377.47;5073863;28;20093;-83
2023/08/12 08:26:57;;;;;;;5.13;3.13;;;;;;;35.70;63.55;96378.91;5074735;28;20025;-91
2023/08/12 08:29:23;;;;;;;8.20;3.75;;;;;;;34.74;66.46;96378.38;5076991;28;20033;-89
2023/08/12 08:31:52;;;;;;;8.02;3.20;;;;;;;36.13;58.73;96375.50;5058868;28;20031;-91
2023/08/12 08:34:17;;;;;;;6.30;3.30;;;;;;;35.05;60.29;96375.72;5064778;28;20487;-91
2023/08/12 08:36:43;;;;;;;8.48;3.60;;;;;;;35.84;64.11;96374.91;5075443;28;20020;-91
2023/08/12 08:39:08;;;;;;;5.63;3.22;;;;;;;36.70;56.45;96384.38;5075387;28;20130;-90
2023/08/12 08:41:47;;;;;;;7.20;4.15;;;;;;;36.88;54.84;96387.09;5074642;28;20028;-93
2023/08/12 08:44:14;;;;;;;6.40;3.25;;;;;;;37.32;51.24;96379.56;5058413;28;20482;-87
2023/08/12 08:46:41;;;;;;;4.93;3.05;;;;;;;38.32;49.63;96380.84;5050254;28;20021;-89
2023/08/12 08:49:09;;;;;;;7.32;3.50;;;;;;;37.97;49.81;96375.63;5067681;28;20013;-88
2023/08/12 08:51:34;;;;;;;4.97;3.25;;;;;;;37.83;48.14;96380.50;5071458;28;20059;-89
2023/08/12 08:54:04;;;;;;;15.70;8.25;;;;;;;37.33;52.24;96383.94;5073907;28;20419;-89
2023/08/12 08:56:30;;;;;;;7.97;5.50;;;;;;;36.85;51.28;96391.28;5054977;28;20028;-90
2023/08/12 08:58:56;;;;;;;14.38;10.38;;;;;;;36.64;53.26;96390.34;5062253;28;20029;-91
2023/08/12 09:01:22;;;;;;;6.13;4.32;;;;;;;35.43;62.38;96386.97;5065259;28;20031;-89
2023/08/12 09:03:52;;;;;;;9.68;5.45;;;;;;;35.99;64.01;96394.75;5066608;28;20103;-88
2023/08/12 09:06:20;;;;;;;7.25;5.38;;;;;;;35.67;65.19;96391.28;5073562;28;20532;-89
2023/08/12 09:08:51;;;;;;;11.48;6.53;;;;;;;35.27;69.69;96391.25;5057520;28;20040;-91
2023/08/12 09:11:18;;;;;;;26.75;21.08;;;;;;;35.54;69.26;96390.28;5054372;28;20032;-91
2023/08/12 09:13:44;;;;;;;14.40;7.47;;;;;;;34.89;72.41;96390.84;5076856;28;20099;-91
2023/08/12 09:16:10;;;;;;;10.68;6.72;;;;;;;34.30;75.89;96398.25;5074409;28;20505;-91
2023/08/12 09:18:37;;;;;;;12.27;8.43;;;;;;;35.10;73.40;96393.91;5054079;28;20033;-91
2023/08/12 09:21:04;;;;;;;17.08;12.35;;;;;;;35.78;69.73;96398.09;5053469;28;20035;-91
2023/08/12 09:23:35;;;;;;;31.27;25.27;;;;;;;35.89;67.18;96399.41;5057170;28;20031;-91
2023/08/12 09:26:18;;;;;;;36.33;29.00;;;;;;;35.06;72.26;96398.38;5059097;28;22231;-91
2023/08/12 09:28:45;;;;;;;15.93;12.93;;;;;;;35.00;70.58;96389.47;5060032;28;20991;-91
2023/08/12 09:32:03;;;;;;;8.20;4.75;;;;;;;35.13;71.48;96385.88;5073882;28;20024;-93
2023/08/12 09:34:28;;;;;;;9.43;7.57;;;;;;;35.38;68.12;96383.56;5071222;28;20052;-90
2023/08/12 09:36:54;;;;;;;13.32;9.48;;;;;;;36.35;63.28;96392.59;5070462;28;20082;-90
2023/08/12 09:39:20;;;;;;;9.15;7.43;;;;;;;36.43;62.53;96392.91;5056941;28;20047;-90
2023/08/12 09:41:45;;;;;;;5.53;3.90;;;;;;;36.32;58.51;96390.50;5074458;28;20024;-90
2023/08/12 09:44:11;;;;;;;6.78;4.55;;;;;;;37.33;56.68;96392.19;5072980;28;20035;-88
2023/08/12 09:46:38;;;;;;;5.45;3.08;;;;;;;37.30;55.05;96395.56;5063401;28;20094;-90
2023/08/12 09:49:04;;;;;;;5.55;3.33;;;;;;;36.72;55.74;96398.56;5072470;28;20070;-90
2023/08/12 09:51:35;;;;;;;6.22;3.85;;;;;;;37.01;53.88;96397.88;5055914;28;20024;-89
2023/08/12 09:54:02;;;;;;;6.53;3.57;;;;;;;35.82;55.88;96390.84;5036571;28;20029;-90
2023/08/12 09:56:36;;;;;;;5.38;3.53;;;;;;;38.10;51.76;96380.03;5040232;28;20032;-88
2023/08/12 09:59:05;;;;;;;4.78;3.30;;;;;;;38.76;48.80;96384.06;5053097;28;20052;-88
2023/08/12 10:01:31;;;;;;;5.47;3.50;;;;;;;39.48;48.49;96377.19;5057008;28;20067;-87
2023/08/12 10:03:57;;;;;;;6.38;3.30;;;;;;;39.65;45.33;96383.63;5051476;28;20020;-89
2023/08/12 10:06:23;;;;;;;6.78;3.58;;;;;;;39.25;45.95;96381.47;5056517;28;20032;-90
2023/08/12 10:08:50;;;;;;;15.05;10.35;;;;;;;40.18;45.64;96384.56;5067167;28;20471;-90
2023/08/12 10:11:16;;;;;;;11.52;7.38;;;;;;;39.93;44.41;96379.03;5055365;28;20035;-90
2023/08/12 10:13:42;;;;;;;5.25;2.78;;;;;;;39.35;45.42;96376.38;5053766;28;20074;-91
2023/08/12 10:16:09;;;;;;;5.28;3.13;;;;;;;39.52;47.46;96375.34;5054010;28;20016;-90
2023/08/12 10:18:41;;;;;;;8.43;6.75;;;;;;;40.83;44.28;96368.72;5058962;28;20052;-89
2023/08/12 10:21:11;;;;;;;4.75;2.72;;;;;;;40.47;39.34;96366.88;5059760;28;20017;-90
2023/08/12 10:23:37;;;;;;;6.03;3.30;;;;;;;40.50;41.87;96366.97;5072704;28;20013;-90
2023/08/12 10:26:05;;;;;;;6.65;2.75;;;;;;;39.79;42.40;96362.06;5052759;28;20055;-88
2023/08/12 10:28:36;;;;;;;5.35;3.13;;;;;;;40.68;41.61;96370.28;5072356;28;20028;-88
2023/08/12 10:31:05;;;;;;;6.03;2.70;;;;;;;40.82;40.24;96369.09;5052928;28;20367;-88
2023/08/12 10:33:36;;;;;;;7.18;3.20;;;;;;;40.76;40.42;96352.78;5053117;28;20039;-88
2023/08/12 10:36:03;;;;;;;3.65;2.90;;;;;;;41.58;39.11;96353.34;5035935;28;20044;-88
2023/08/12 10:38:29;;;;;;;4.40;3.00;;;;;;;40.15;38.95;96349.44;5077252;28;20021;-88
2023/08/12 10:41:17;;;;;;;7.18;3.00;;;;;;;39.05;39.79;96344.66;5055725;28;20509;-88
2023/08/12 10:43:56;;;;;;;7.90;2.97;;;;;;;39.25;40.19;96342.97;5066641;28;20036;-87
2023/08/12 10:46:23;;;;;;;3.78;2.53;;;;;;;39.84;39.49;96331.53;5055668;28;20025;-88
2023/08/12 10:49:14;;;;;;;3.78;2.45;;;;;;;40.72;39.91;96329.84;5072745;28;20016;-88
2023/08/12 10:51:39;;;;;;;4.38;2.75;;;;;;;40.79;39.39;96334.75;5049915;28;20099;-87
2023/08/12 10:54:22;;;;;;;4.07;2.60;;;;;;;40.63;39.31;96336.66;5054981;28;20070;-88
2023/08/12 10:57:08;;;;;;;3.78;2.35;;;;;;;39.47;37.61;96330.72;5054732;28;20119;-88
2023/08/12 10:59:45;;;;;;;5.72;3.03;;;;;;;39.27;38.70;96325.00;5048166;28;20020;-91
2023/08/12 11:02:34;;;;;;;4.70;2.55;;;;;;;40.66;38.53;96322.16;5070906;28;20032;-88
2023/08/12 11:05:03;;;;;;;5.07;3.58;;;;;;;41.89;36.92;96314.66;5072698;28;20016;-88
2023/08/12 11:07:55;;;;;;;6.13;3.03;;;;;;;41.35;35.09;96300.69;5062683;28;20020;-88
2023/08/12 11:10:26;;;;;;;2.87;2.30;;;;;;;41.53;36.22;96287.38;5074596;28;20689;-88
2023/08/12 11:12:51;;;;;;;3.85;2.90;;;;;;;41.91;36.10;96284.69;5077488;28;20025;-88
2023/08/12 11:15:18;;;;;;;5.00;3.08;;;;;;;40.26;36.92;96282.44;5048002;28;20087;-88
2023/08/12 11:17:46;;;;;;;5.35;2.97;;;;;;;39.86;39.09;96290.69;5066109;28;20021;-91
2023/08/12 11:20:13;;;;;;;3.83;2.72;;;;;;;39.79;38.74;96299.53;5068927;28;20021;-90
2023/08/12 11:22:43;;;;;;;4.18;2.80;;;;;;;39.66;39.51;96306.19;5057669;28;20017;-90
2023/08/12 11:25:12;;;;;;;5.07;2.60;;;;;;;40.42;39.68;96314.78;5062900;28;20052;-90
2023/08/12 11:27:45;;;;;;;3.65;2.67;;;;;;;41.23;39.30;96309.88;5061471;28;20027;-88
2023/08/12 11:30:16;;;;;;;6.10;2.92;;;;;;;41.16;37.93;96316.03;5077918;28;20020;-88
2023/08/12 11:32:48;;;;;;;4.93;2.95;;;;;;;41.27;40.08;96316.28;5078126;28;20529;-89